Weather History for Big Rapids, MI

Change the Weather History Date:

Thursday, March 27, 2014

  Actual Average Record
Temperature  
Mean Temperature 32 °F -  
Max Temperature 38 °F 47 °F 78 °F (1998)
Min Temperature 28 °F 24 °F 1 °F (2011)
Degree Days  
Heating Degree Days 32    
Moisture  
Dew Point 29 °F    
Average Humidity 84    
Maximum Humidity 100    
Minimum Humidity 57    
Precipitation  
Precipitation 0.14 in - - ()
Sea Level Pressure  
Sea Level Pressure 29.80 in    
Wind  
Wind Speed 6 mph (SSE)    
Max Wind Speed 12 mph    
Max Gust Speed 18 mph    
Visibility 5 miles    
Events Rain , Snow    
Averages and records for this station are not official NWS values.
T = Trace of Precipitation, MM = Missing Value Source: NWS Daily Summary

Daily Weather History Graph

Daily Weather History Graph

Search for Another Location

Airport:

Trip Planner

Search our weather history database for the weather conditions in past years. The results will help you decide how hot, cold, wet, or windy it might be!

Date:

Astronomy

Mar. 27, 2014 Rise Set
Actual Time 7:32 AM EDT 8:02 PM EDT
Civil Twilight 7:03 AM EDT 8:31 PM EDT
Nautical Twilight 6:29 AM EDT 9:05 PM EDT
Astronomical Twilight 5:54 AM EDT 9:41 PM EDT
Moon 5:29 AM EDT 4:44 PM EDT
Length of Visible Light 13h 27m
Length of Day
12h 30m
Waning Crescent, 13% of the Moon is Illuminated
Mar 27
Waning Crescent
Mar 30
New
Apr 7
First Quarter
Apr 15
Full
Apr 22
Last Quarter

Hourly Weather History & Observations

Time (EDT) Temp. Windchill Dew Point Humidity Pressure Visibility Wind Dir Wind Speed Gust Speed Precip Events Conditions
12:15 AM 28.9 °F 23.9 °F 15.8 °F 58% 30.02 in 10.0 mi SSE 4.6 mph - N/A   Overcast
12:34 AM 29.3 °F 21.5 °F 16.5 °F 59% 30.02 in 10.0 mi SSE 8.1 mph - N/A   Overcast
12:55 AM 29.8 °F 26.3 °F 16.7 °F 58% 30.04 in 10.0 mi South 3.5 mph - N/A   Overcast
1:15 AM 29.8 °F 26.3 °F 17.1 °F 59% 30.05 in 10.0 mi South 3.5 mph - N/A   Overcast
1:34 AM 29.7 °F 24.7 °F 17.8 °F 61% 30.04 in 10.0 mi SSE 4.6 mph - N/A   Overcast
1:55 AM 29.8 °F 26.3 °F 18.3 °F 62% 30.03 in 10.0 mi SSE 3.5 mph - N/A   Overcast
2:15 AM 30.0 °F - 18.0 °F 61% 30.03 in 10.0 mi Calm Calm - N/A   Overcast
2:35 AM 29.8 °F 23.9 °F 18.9 °F 64% 30.01 in 10.0 mi SE 5.8 mph - N/A   Overcast
2:55 AM 30.0 °F 26.5 °F 18.3 °F 62% 30.00 in 10.0 mi SSE 3.5 mph - N/A   Overcast
3:14 AM 30.0 °F 25.2 °F 18.1 °F 61% 30.00 in 10.0 mi SSE 4.6 mph - N/A   Overcast
3:35 AM 30.0 °F 25.2 °F 18.7 °F 63% 29.99 in 10.0 mi SE 4.6 mph - N/A   Overcast
3:55 AM 30.2 °F 24.3 °F 18.7 °F 62% 29.98 in 10.0 mi SSE 5.8 mph - N/A   Overcast
4:15 AM 30.2 °F 24.3 °F 19.2 °F 64% 29.97 in 10.0 mi SSE 5.8 mph - N/A   Overcast
4:35 AM 30.9 °F 27.5 °F 18.5 °F 60% 29.97 in 10.0 mi South 3.5 mph - N/A   Overcast
4:55 AM 30.9 °F 27.5 °F 19.0 °F 61% 29.95 in 10.0 mi SSE 3.5 mph - N/A   Overcast
5:14 AM 31.6 °F 23.7 °F 18.3 °F 58% 29.94 in 10.0 mi SSE 9.2 mph - N/A   Overcast
5:35 AM 31.6 °F 25.1 °F 18.3 °F 58% 29.94 in 10.0 mi SSE 6.9 mph - N/A   Overcast
5:55 AM 32.0 °F 26.4 °F 18.3 °F 57% 29.93 in 10.0 mi SSE 5.8 mph - N/A   Overcast
6:14 AM 32.0 °F 25.6 °F 18.3 °F 57% 29.92 in 10.0 mi SSE 6.9 mph - N/A   Overcast
6:35 AM 32.0 °F 26.4 °F 18.5 °F 58% 29.92 in 10.0 mi South 5.8 mph - N/A   Overcast
6:55 AM 32.0 °F 25.6 °F 18.5 °F 58% 29.91 in 10.0 mi South 6.9 mph - N/A   Overcast
7:14 AM 32.0 °F 26.4 °F 18.9 °F 58% 29.91 in 10.0 mi SSE 5.8 mph - N/A   Overcast
7:35 AM 31.8 °F 26.2 °F 19.9 °F 62% 29.90 in 10.0 mi SE 5.8 mph - N/A   Overcast
7:55 AM 31.8 °F 27.3 °F 20.1 °F 62% 29.90 in 10.0 mi SSE 4.6 mph - N/A   Overcast
8:14 AM 32.2 °F 25.8 °F 19.2 °F 59% 29.90 in 10.0 mi SSW 6.9 mph - N/A   Overcast
8:35 AM 33.1 °F 26.1 °F 21.9 °F 64% 29.90 in 7.0 mi SW 8.1 mph 16.1 mph N/A Snow Light Snow
8:54 AM 32.9 °F 25.9 °F 23.4 °F 68% 29.90 in 5.0 mi South 8.1 mph 18.4 mph N/A Snow Light Snow
9:15 AM 32.0 °F 25.6 °F 26.2 °F 79% 29.89 in 2.5 mi South 6.9 mph - N/A Snow Light Snow
9:35 AM 31.6 °F 24.4 °F 27.7 °F 85% 29.89 in 1.5 mi South 8.1 mph - N/A Snow Light Snow
9:55 AM 31.5 °F 23.5 °F 28.8 °F 90% 29.88 in 2.0 mi South 9.2 mph - N/A Snow Light Snow
10:15 AM 31.6 °F 24.4 °F 30.6 °F 96% 29.87 in 1.5 mi South 8.1 mph - N/A Snow Light Snow
10:35 AM 31.8 °F 25.4 °F 31.6 °F 99% 29.86 in 1.2 mi South 6.9 mph - N/A Snow Light Snow
10:55 AM 32.0 °F 24.2 °F 32.0 °F 100% 29.85 in 1.8 mi SSE 9.2 mph - N/A Snow Light Snow
11:15 AM 32.0 °F 23.0 °F 32.0 °F 100% 29.85 in 1.8 mi South 11.5 mph - N/A Snow Light Snow
11:35 AM 32.5 °F 26.2 °F 32.5 °F 100% 29.85 in 2.5 mi SSE 6.9 mph - N/A Snow Light Snow
11:55 AM 32.9 °F 25.9 °F 32.9 °F 100% 29.84 in 1.2 mi South 8.1 mph - N/A Snow Light Snow
12:15 PM 33.3 °F 25.7 °F 33.3 °F 100% 29.83 in 2.0 mi South 9.2 mph - N/A Snow Light Snow
12:35 PM 33.8 °F 25.3 °F 33.8 °F 100% 29.82 in 4.0 mi South 11.5 mph 16.1 mph N/A Snow Light Snow
12:54 PM 34.0 °F 27.2 °F 34.0 °F 100% 29.81 in 5.0 mi South 8.1 mph - N/A Snow Light Snow
1:15 PM 34.5 °F 26.7 °F 34.2 °F 99% 29.80 in 4.0 mi South 10.4 mph - N/A Snow Light Snow
1:35 PM 34.5 °F 27.3 °F 34.3 °F 99% 29.79 in 4.0 mi South 9.2 mph 16.1 mph N/A   Overcast
1:54 PM 34.7 °F 28.1 °F 34.7 °F 100% 29.78 in 4.0 mi South 8.1 mph - N/A   Overcast
2:15 PM 34.9 °F 27.7 °F 34.9 °F 100% 29.76 in 4.0 mi South 9.2 mph - N/A   Overcast
2:35 PM 35.1 °F 28.6 °F 35.1 °F 100% 29.75 in 2.5 mi South 8.1 mph - N/A   Overcast
2:54 PM 35.2 °F 28.8 °F 35.2 °F 100% 29.74 in 2.5 mi SSW 8.1 mph - N/A   Overcast
3:15 PM 35.6 °F 29.9 °F 35.6 °F 100% 29.74 in 2.5 mi South 6.9 mph - N/A   Overcast
3:35 PM 35.6 °F 28.6 °F 35.6 °F 100% 29.73 in 3.0 mi South 9.2 mph - N/A   Overcast
3:55 PM 36.0 °F 30.3 °F 36.0 °F 100% 29.72 in 4.0 mi South 6.9 mph - N/A   Overcast
4:15 PM 36.0 °F 29.0 °F 36.0 °F 100% 29.71 in 5.0 mi South 9.2 mph - N/A   Overcast
4:35 PM 36.0 °F 30.3 °F 36.0 °F 100% 29.70 in 3.0 mi South 6.9 mph - N/A   Overcast
4:55 PM 36.1 °F 31.4 °F 36.1 °F 100% 29.69 in 4.0 mi SSE 5.8 mph - N/A   Overcast
5:15 PM 36.0 °F 30.3 °F 36.0 °F 100% 29.69 in 2.0 mi South 6.9 mph - N/A   Overcast
5:35 PM 35.8 °F 30.1 °F 35.8 °F 100% 29.68 in 1.5 mi South 6.9 mph - N/A Snow Light Snow
5:54 PM 35.6 °F 30.7 °F 35.6 °F 100% 29.68 in 1.2 mi SSE 5.8 mph - N/A Snow Light Snow
6:15 PM 35.2 °F 30.3 °F 35.2 °F 100% 29.66 in 1.0 mi SSE 5.8 mph - 0.01 in Snow Light Snow
6:35 PM 35.6 °F 29.9 °F 35.6 °F 100% 29.65 in 2.0 mi SE 6.9 mph - 0.01 in Rain Light Rain
6:55 PM 35.2 °F 29.5 °F 35.2 °F 100% 29.65 in 2.0 mi SE 6.9 mph - 0.03 in   Overcast
7:15 PM 35.6 °F 29.9 °F 35.6 °F 100% 29.65 in 2.5 mi SSE 6.9 mph - N/A Rain Light Rain
7:35 PM 35.8 °F 30.9 °F 35.8 °F 100% 29.64 in 1.5 mi SSE 5.8 mph - N/A Rain Light Rain
7:55 PM 35.6 °F 29.9 °F 35.6 °F 100% 29.63 in 1.5 mi SSE 6.9 mph - N/A   Overcast
8:15 PM 35.1 °F 28.6 °F 35.1 °F 100% 29.62 in 1.0 mi SSE 8.1 mph - N/A   Overcast
8:35 PM 35.8 °F 29.4 °F 35.8 °F 100% 29.60 in 3.0 mi SSE 8.1 mph - 0.01 in Rain Light Rain
8:55 PM 36.5 °F 28.7 °F 36.5 °F 100% 29.60 in 3.0 mi SSE 11.5 mph 16.1 mph 0.01 in Rain Light Rain
9:15 PM 36.5 °F 31.0 °F 36.5 °F 100% 29.59 in 3.0 mi SSE 6.9 mph - N/A Rain Light Rain
9:34 PM 36.5 °F 29.2 °F 36.5 °F 100% 29.58 in 3.0 mi SSE 10.4 mph - N/A Rain Light Rain
9:55 PM 36.7 °F 30.5 °F 36.7 °F 100% 29.56 in 3.0 mi SSE 8.1 mph - N/A Rain Light Rain
10:15 PM 37.2 °F 30.0 °F 37.2 °F 100% 29.55 in 3.0 mi South 10.4 mph - N/A Rain Rain
10:34 PM 37.4 °F 31.4 °F 37.4 °F 100% 29.55 in 3.0 mi South 8.1 mph - 0.01 in Snow Light Snow
10:55 PM 37.4 °F 30.8 °F 37.4 °F 100% 29.53 in 3.0 mi SSE 9.2 mph - 0.04 in Rain Light Rain
11:15 PM 37.6 °F 33.1 °F 37.6 °F 100% 29.53 in 3.0 mi South 5.8 mph - 0.01 in Snow Light Snow
11:34 PM 37.6 °F 34.0 °F 37.6 °F 100% 29.52 in 3.0 mi SSE 4.6 mph - 0.04 in Rain Light Rain
11:55 PM 38.1 °F 33.7 °F 38.1 °F 100% 29.51 in 2.5 mi SSE 5.8 mph - 0.06 in Rain Light Rain